Pajarito, New Mexico
Current Conditions -  °F | °C
As of 12:35 AM on Thursday 23 Oct 2014 (Local Time) from KLAM Reporting Station
Clear Clear  
Wind Chill: 53°   Ceiling: Unl
Heat Index: 53°   Visibility: 10mi
Dew Point: 34°   Wind: 3mph
Humidity: 48%   Direction: 280°W
Pressure: 30.29"   Gusts: NA
Location:  35.9775°N, 106.158°W
Report Text: KLAM 230635Z AUTO 28003KT 10SM CLR 12/01 A3029 RMK AO2 T01180010
Loading
Personal Weather Stations






























Interactive Weather Map New forecast layout! Learn more

10-Day Weather Forecast

Advertisements
Track Severe Weather on mobile